createdAt,value
2024-04-24T08:36:27.327Z,11.30
2024-04-24T08:46:27.331Z,12.30
2024-04-24T08:56:27.373Z,11.30
2024-04-24T09:06:27.363Z,11.60
2024-04-24T09:16:27.363Z,10.50
2024-04-24T09:26:27.506Z,10.60
2024-04-24T09:36:27.350Z,10.20
2024-04-24T09:46:27.374Z,10.60
2024-04-24T09:56:27.418Z,9.30
2024-04-24T10:06:27.432Z,9.60
2024-04-24T10:16:27.382Z,9.80
2024-04-24T10:26:27.492Z,9.00
2024-04-24T10:36:27.386Z,7.80
2024-04-24T10:46:27.391Z,9.30
2024-04-24T10:56:27.506Z,9.70
2024-04-24T11:06:27.431Z,9.80
2024-04-24T11:16:27.399Z,9.40
2024-04-24T11:26:27.416Z,9.30
2024-04-24T11:36:27.425Z,10.10
2024-04-24T11:56:27.607Z,10.80
2024-04-24T12:36:27.486Z,11.20
2024-04-24T12:46:27.444Z,11.70
2024-04-24T12:56:27.567Z,10.50
2024-04-24T13:06:27.475Z,10.50
2024-04-24T13:16:27.763Z,9.80
2024-04-24T13:46:27.483Z,8.40
2024-04-24T14:06:30.187Z,7.10
2024-04-24T14:26:27.537Z,6.20
2024-04-24T15:06:27.524Z,5.80
2024-04-24T15:16:27.549Z,6.80
2024-04-24T15:26:27.588Z,7.30
2024-04-24T15:36:27.539Z,7.10
2024-04-24T15:46:27.527Z,7.20
2024-04-24T15:56:27.634Z,7.90
2024-04-24T17:06:27.592Z,8.40
2024-04-24T17:56:27.613Z,8.60
2024-04-24T18:06:27.641Z,9.30
2024-04-24T18:16:27.620Z,15.10
2024-04-24T18:26:27.653Z,17.70
2024-04-24T18:46:27.614Z,23.10
2024-04-24T18:56:27.637Z,25.70
2024-04-24T19:06:27.591Z,26.20
2024-04-24T19:16:27.661Z,27.20
